Atmautluak, Alaska
Current Conditions -  °F | °C
As of 6:53 AM on Saturday 25 Oct 2014 (Local Time) from PABE Reporting Station
Few Clouds Few Clouds  
Wind Chill: 16°   Ceiling: Unl
Heat Index: 27°   Visibility: 10mi
Dew Point: 23°   Wind: 13mph
Humidity: 85%   Direction: 170°S
Pressure: 29.87"   Gusts: NA
Location:  60.7494°N, 161.727°W
Report Text: PABE 251453Z 17011KT 10SM FEW043 FEW100 M03/M05 A2987 RMK AO2 SLP118 T10281050 56017
Loading
Personal Weather Stations






























Interactive Weather Map
Tropical Storm Tracking
New forecast layout! Learn more

10-Day Weather Forecast

Advertisements
Track Severe Weather on mobile